sensor_id;sensor_type;location;lat;lon;timestamp;P1;durP1;ratioP1;P2;durP2;ratioP2
21432;SDS011;18592;49.708;10.900;2023-02-28T00:01:01;3.90;;;2.90;;
21432;SDS011;18592;49.708;10.900;2023-02-28T00:03:03;5.00;;;3.03;;
21432;SDS011;18592;49.708;10.900;2023-02-28T00:05:06;3.80;;;2.80;;
21432;SDS011;18592;49.708;10.900;2023-02-28T00:07:18;3.80;;;2.80;;
21432;SDS011;18592;49.708;10.900;2023-02-28T00:09:20;5.23;;;3.10;;
21432;SDS011;18592;49.708;10.900;2023-02-28T00:11:24;6.37;;;3.03;;
21432;SDS011;18592;49.708;10.900;2023-02-28T00:13:26;4.07;;;2.90;;
21432;SDS011;18592;49.708;10.900;2023-02-28T00:15:30;4.70;;;2.80;;
21432;SDS011;18592;49.708;10.900;2023-02-28T00:17:32;3.73;;;2.47;;
21432;SDS011;18592;49.708;10.900;2023-02-28T00:19:34;4.10;;;2.87;;
21432;SDS011;18592;49.708;10.900;2023-02-28T00:21:35;3.00;;;2.67;;
21432;SDS011;18592;49.708;10.900;2023-02-28T00:23:37;3.20;;;2.53;;
21432;SDS011;18592;49.708;10.900;2023-02-28T00:25:42;3.87;;;2.77;;
21432;SDS011;18592;49.708;10.900;2023-02-28T00:27:47;4.67;;;3.07;;
21432;SDS011;18592;49.708;10.900;2023-02-28T00:29:52;7.17;;;2.80;;
21432;SDS011;18592;49.708;10.900;2023-02-28T00:31:55;2.83;;;2.33;;
21432;SDS011;18592;49.708;10.900;2023-02-28T00:33:59;4.93;;;2.50;;
21432;SDS011;18592;49.708;10.900;2023-02-28T00:36:08;4.90;;;2.43;;
21432;SDS011;18592;49.708;10.900;2023-02-28T00:38:12;3.43;;;2.50;;
21432;SDS011;18592;49.708;10.900;2023-02-28T00:40:14;3.63;;;2.60;;
21432;SDS011;18592;49.708;10.900;2023-02-28T00:42:16;3.40;;;2.53;;
21432;SDS011;18592;49.708;10.900;2023-02-28T00:44:21;3.37;;;2.30;;
21432;SDS011;18592;49.708;10.900;2023-02-28T00:46:23;3.67;;;2.60;;
21432;SDS011;18592;49.708;10.900;2023-02-28T00:48:24;4.70;;;2.70;;
21432;SDS011;18592;49.708;10.900;2023-02-28T00:50:26;4.00;;;2.70;;
21432;SDS011;18592;49.708;10.900;2023-02-28T00:52:37;3.30;;;2.30;;
21432;SDS011;18592;49.708;10.900;2023-02-28T00:54:39;3.17;;;2.20;;
21432;SDS011;18592;49.708;10.900;2023-02-28T00:56:41;3.60;;;2.23;;
21432;SDS011;18592;49.708;10.900;2023-02-28T00:58:43;2.97;;;2.30;;
21432;SDS011;18592;49.708;10.900;2023-02-28T01:00:44;4.17;;;2.77;;
21432;SDS011;18592;49.708;10.900;2023-02-28T01:02:50;3.83;;;2.63;;
21432;SDS011;18592;49.708;10.900;2023-02-28T01:04:52;3.50;;;2.57;;
21432;SDS011;18592;49.708;10.900;2023-02-28T01:06:56;2.83;;;2.40;;
21432;SDS011;18592;49.708;10.900;2023-02-28T01:08:58;3.97;;;2.40;;
21432;SDS011;18592;49.708;10.900;2023-02-28T01:11:06;3.60;;;2.50;;
21432;SDS011;18592;49.708;10.900;2023-02-28T01:13:14;5.50;;;2.87;;
21432;SDS011;18592;49.708;10.900;2023-02-28T01:15:16;4.03;;;2.50;;
21432;SDS011;18592;49.708;10.900;2023-02-28T01:17:18;4.47;;;2.90;;
21432;SDS011;18592;49.708;10.900;2023-02-28T01:19:23;5.10;;;2.43;;
21432;SDS011;18592;49.708;10.900;2023-02-28T01:21:30;4.67;;;2.63;;
21432;SDS011;18592;49.708;10.900;2023-02-28T01:23:35;4.93;;;2.70;;
21432;SDS011;18592;49.708;10.900;2023-02-28T01:25:37;4.03;;;2.57;;
21432;SDS011;18592;49.708;10.900;2023-02-28T01:27:39;3.57;;;2.07;;
21432;SDS011;18592;49.708;10.900;2023-02-28T01:29:41;3.83;;;2.57;;
21432;SDS011;18592;49.708;10.900;2023-02-28T01:31:43;4.27;;;2.40;;
21432;SDS011;18592;49.708;10.900;2023-02-28T01:33:45;3.07;;;2.30;;
21432;SDS011;18592;49.708;10.900;2023-02-28T01:35:47;5.17;;;2.30;;
21432;SDS011;18592;49.708;10.900;2023-02-28T01:37:49;3.83;;;2.90;;
21432;SDS011;18592;49.708;10.900;2023-02-28T01:39:51;3.47;;;2.53;;
21432;SDS011;18592;49.708;10.900;2023-02-28T01:41:54;4.03;;;2.30;;
21432;SDS011;18592;49.708;10.900;2023-02-28T01:44:01;3.10;;;2.50;;
21432;SDS011;18592;49.708;10.900;2023-02-28T01:46:07;3.87;;;2.40;;
21432;SDS011;18592;49.708;10.900;2023-02-28T01:48:11;5.00;;;2.90;;
21432;SDS011;18592;49.708;10.900;2023-02-28T01:50:18;4.70;;;2.83;;
21432;SDS011;18592;49.708;10.900;2023-02-28T01:52:25;3.67;;;2.50;;
21432;SDS011;18592;49.708;10.900;2023-02-28T01:54:29;3.73;;;2.80;;
21432;SDS011;18592;49.708;10.900;2023-02-28T01:56:34;4.20;;;2.53;;
21432;SDS011;18592;49.708;10.900;2023-02-28T01:58:39;4.07;;;2.50;;
21432;SDS011;18592;49.708;10.900;2023-02-28T02:00:41;4.27;;;2.77;;
21432;SDS011;18592;49.708;10.900;2023-02-28T02:02:45;3.50;;;2.30;;
21432;SDS011;18592;49.708;10.900;2023-02-28T02:04:54;3.90;;;2.80;;
21432;SDS011;18592;49.708;10.900;2023-02-28T02:06:59;4.10;;;2.70;;
21432;SDS011;18592;49.708;10.900;2023-02-28T02:09:04;3.10;;;2.50;;
21432;SDS011;18592;49.708;10.900;2023-02-28T02:11:07;2.97;;;2.67;;
21432;SDS011;18592;49.708;10.900;2023-02-28T02:16:03;3.40;;;2.40;;
21432;SDS011;18592;49.708;10.900;2023-02-28T02:18:10;3.60;;;2.67;;
21432;SDS011;18592;49.708;10.900;2023-02-28T02:20:39;3.57;;;2.63;;
21432;SDS011;18592;49.708;10.900;2023-02-28T02:30:48;4.33;;;2.40;;
21432;SDS011;18592;49.708;10.900;2023-02-28T02:38:09;4.70;;;2.50;;
21432;SDS011;18592;49.708;10.900;2023-02-28T02:40:20;3.47;;;2.50;;
21432;SDS011;18592;49.708;10.900;2023-02-28T02:42:49;3.90;;;2.57;;
21432;SDS011;18592;49.708;10.900;2023-02-28T02:45:00;3.77;;;2.60;;
21432;SDS011;18592;49.708;10.900;2023-02-28T02:47:09;3.73;;;2.47;;
21432;SDS011;18592;49.708;10.900;2023-02-28T02:49:24;3.33;;;2.77;;
21432;SDS011;18592;49.708;10.900;2023-02-28T02:51:30;4.07;;;2.80;;
21432;SDS011;18592;49.708;10.900;2023-02-28T02:53:34;4.53;;;2.50;;
21432;SDS011;18592;49.708;10.900;2023-02-28T02:55:42;4.87;;;2.73;;
21432;SDS011;18592;49.708;10.900;2023-02-28T02:58:08;4.60;;;2.90;;
21432;SDS011;18592;49.708;10.900;2023-02-28T03:00:17;4.47;;;2.87;;
21432;SDS011;18592;49.708;10.900;2023-02-28T03:02:24;3.13;;;2.10;;
21432;SDS011;18592;49.708;10.900;2023-02-28T03:04:30;4.37;;;2.80;;
21432;SDS011;18592;49.708;10.900;2023-02-28T03:06:36;5.97;;;2.63;;
21432;SDS011;18592;49.708;10.900;2023-02-28T03:08:38;4.50;;;2.60;;
21432;SDS011;18592;49.708;10.900;2023-02-28T03:10:41;6.80;;;3.17;;
21432;SDS011;18592;49.708;10.900;2023-02-28T03:12:47;4.30;;;2.60;;
21432;SDS011;18592;49.708;10.900;2023-02-28T03:24:08;3.97;;;2.70;;
21432;SDS011;18592;49.708;10.900;2023-02-28T03:26:19;4.10;;;2.80;;
21432;SDS011;18592;49.708;10.900;2023-02-28T03:30:54;3.27;;;2.40;;
21432;SDS011;18592;49.708;10.900;2023-02-28T03:33:13;4.07;;;2.30;;
21432;SDS011;18592;49.708;10.900;2023-02-28T03:35:27;4.23;;;2.57;;
21432;SDS011;18592;49.708;10.900;2023-02-28T03:38:03;3.80;;;2.50;;
21432;SDS011;18592;49.708;10.900;2023-02-28T03:40:15;4.63;;;2.90;;
21432;SDS011;18592;49.708;10.900;2023-02-28T03:42:22;3.83;;;2.53;;
21432;SDS011;18592;49.708;10.900;2023-02-28T03:44:32;4.00;;;2.60;;
21432;SDS011;18592;49.708;10.900;2023-02-28T03:46:38;3.43;;;2.60;;
21432;SDS011;18592;49.708;10.900;2023-02-28T03:48:49;4.33;;;2.70;;
21432;SDS011;18592;49.708;10.900;2023-02-28T03:50:57;4.60;;;2.80;;
21432;SDS011;18592;49.708;10.900;2023-02-28T03:53:02;3.90;;;2.70;;
21432;SDS011;18592;49.708;10.900;2023-02-28T03:55:10;3.67;;;2.67;;
21432;SDS011;18592;49.708;10.900;2023-02-28T03:57:22;3.77;;;2.60;;
21432;SDS011;18592;49.708;10.900;2023-02-28T03:59:35;5.47;;;3.07;;
21432;SDS011;18592;49.708;10.900;2023-02-28T04:01:38;3.97;;;2.63;;
21432;SDS011;18592;49.708;10.900;2023-02-28T04:03:42;5.63;;;3.00;;
21432;SDS011;18592;49.708;10.900;2023-02-28T04:05:55;3.80;;;2.70;;
21432;SDS011;18592;49.708;10.900;2023-02-28T04:08:06;4.53;;;2.67;;
21432;SDS011;18592;49.708;10.900;2023-02-28T04:10:12;3.67;;;2.60;;
21432;SDS011;18592;49.708;10.900;2023-02-28T04:12:14;4.60;;;2.90;;
21432;SDS011;18592;49.708;10.900;2023-02-28T04:14:15;4.33;;;2.83;;
21432;SDS011;18592;49.708;10.900;2023-02-28T04:16:17;4.33;;;3.00;;
21432;SDS011;18592;49.708;10.900;2023-02-28T04:18:35;4.60;;;3.00;;
21432;SDS011;18592;49.708;10.900;2023-02-28T04:20:36;5.53;;;3.47;;
21432;SDS011;18592;49.708;10.900;2023-02-28T04:22:44;6.43;;;3.53;;
21432;SDS011;18592;49.708;10.900;2023-02-28T04:24:45;4.37;;;2.93;;
21432;SDS011;18592;49.708;10.900;2023-02-28T04:26:48;4.43;;;2.90;;
21432;SDS011;18592;49.708;10.900;2023-02-28T04:28:51;5.47;;;3.00;;
21432;SDS011;18592;49.708;10.900;2023-02-28T04:30:54;6.90;;;3.83;;
21432;SDS011;18592;49.708;10.900;2023-02-28T04:32:59;4.87;;;3.43;;
21432;SDS011;18592;49.708;10.900;2023-02-28T04:35:01;4.60;;;3.10;;
21432;SDS011;18592;49.708;10.900;2023-02-28T04:37:03;5.57;;;3.50;;
21432;SDS011;18592;49.708;10.900;2023-02-28T04:39:15;6.33;;;3.73;;
21432;SDS011;18592;49.708;10.900;2023-02-28T04:41:19;4.77;;;3.47;;
21432;SDS011;18592;49.708;10.900;2023-02-28T04:43:22;3.80;;;2.97;;
21432;SDS011;18592;49.708;10.900;2023-02-28T04:45:24;4.70;;;3.30;;
21432;SDS011;18592;49.708;10.900;2023-02-28T04:47:25;4.07;;;2.97;;
21432;SDS011;18592;49.708;10.900;2023-02-28T04:49:33;5.93;;;3.70;;
21432;SDS011;18592;49.708;10.900;2023-02-28T04:51:35;3.87;;;2.97;;
21432;SDS011;18592;49.708;10.900;2023-02-28T04:53:37;6.00;;;3.30;;
21432;SDS011;18592;49.708;10.900;2023-02-28T04:55:40;8.47;;;4.87;;
21432;SDS011;18592;49.708;10.900;2023-02-28T04:57:41;12.07;;;6.33;;
21432;SDS011;18592;49.708;10.900;2023-02-28T04:59:43;13.47;;;7.47;;
21432;SDS011;18592;49.708;10.900;2023-02-28T05:01:45;13.93;;;7.07;;
21432;SDS011;18592;49.708;10.900;2023-02-28T05:03:48;13.50;;;7.03;;
21432;SDS011;18592;49.708;10.900;2023-02-28T05:05:51;10.23;;;6.10;;
21432;SDS011;18592;49.708;10.900;2023-02-28T05:07:52;9.47;;;5.53;;
21432;SDS011;18592;49.708;10.900;2023-02-28T05:09:55;8.17;;;4.87;;
21432;SDS011;18592;49.708;10.900;2023-02-28T05:11:57;6.90;;;4.57;;
21432;SDS011;18592;49.708;10.900;2023-02-28T05:13:59;6.13;;;3.93;;
21432;SDS011;18592;49.708;10.900;2023-02-28T05:16:01;7.47;;;4.10;;
21432;SDS011;18592;49.708;10.900;2023-02-28T05:18:02;6.23;;;4.00;;
21432;SDS011;18592;49.708;10.900;2023-02-28T05:20:04;6.13;;;4.03;;
21432;SDS011;18592;49.708;10.900;2023-02-28T05:22:16;6.90;;;4.50;;
21432;SDS011;18592;49.708;10.900;2023-02-28T05:24:18;8.63;;;5.37;;
21432;SDS011;18592;49.708;10.900;2023-02-28T05:26:27;6.73;;;5.00;;
21432;SDS011;18592;49.708;10.900;2023-02-28T05:28:32;8.10;;;5.07;;
21432;SDS011;18592;49.708;10.900;2023-02-28T05:30:33;6.33;;;4.70;;
21432;SDS011;18592;49.708;10.900;2023-02-28T05:32:39;7.13;;;5.07;;
21432;SDS011;18592;49.708;10.900;2023-02-28T05:34:47;7.60;;;5.33;;
21432;SDS011;18592;49.708;10.900;2023-02-28T05:36:51;7.27;;;5.47;;
21432;SDS011;18592;49.708;10.900;2023-02-28T05:38:53;8.30;;;5.53;;
21432;SDS011;18592;49.708;10.900;2023-02-28T05:40:55;6.97;;;5.13;;
21432;SDS011;18592;49.708;10.900;2023-02-28T05:43:03;8.30;;;5.93;;
21432;SDS011;18592;49.708;10.900;2023-02-28T05:45:04;7.03;;;5.10;;
21432;SDS011;18592;49.708;10.900;2023-02-28T05:47:08;8.00;;;5.70;;
21432;SDS011;18592;49.708;10.900;2023-02-28T05:49:09;5.37;;;4.80;;
21432;SDS011;18592;49.708;10.900;2023-02-28T05:51:11;8.20;;;5.87;;
21432;SDS011;18592;49.708;10.900;2023-02-28T05:53:13;7.27;;;5.87;;
21432;SDS011;18592;49.708;10.900;2023-02-28T05:55:17;8.40;;;6.00;;
21432;SDS011;18592;49.708;10.900;2023-02-28T05:57:19;9.97;;;6.23;;
21432;SDS011;18592;49.708;10.900;2023-02-28T05:59:25;8.77;;;6.30;;
21432;SDS011;18592;49.708;10.900;2023-02-28T06:03:38;7.67;;;5.67;;
21432;SDS011;18592;49.708;10.900;2023-02-28T06:05:40;6.57;;;5.83;;
21432;SDS011;18592;49.708;10.900;2023-02-28T06:07:42;9.70;;;6.23;;
21432;SDS011;18592;49.708;10.900;2023-02-28T06:09:45;7.77;;;5.87;;
21432;SDS011;18592;49.708;10.900;2023-02-28T06:11:47;8.20;;;5.60;;
21432;SDS011;18592;49.708;10.900;2023-02-28T06:13:49;8.87;;;5.43;;
21432;SDS011;18592;49.708;10.900;2023-02-28T06:15:51;6.80;;;5.00;;
21432;SDS011;18592;49.708;10.900;2023-02-28T06:17:53;8.23;;;5.37;;
21432;SDS011;18592;49.708;10.900;2023-02-28T06:19:55;7.83;;;5.07;;
21432;SDS011;18592;49.708;10.900;2023-02-28T06:21:57;7.23;;;5.30;;
21432;SDS011;18592;49.708;10.900;2023-02-28T06:23:59;7.13;;;4.87;;
21432;SDS011;18592;49.708;10.900;2023-02-28T06:26:00;6.47;;;4.47;;
21432;SDS011;18592;49.708;10.900;2023-02-28T06:28:03;6.60;;;4.87;;
21432;SDS011;18592;49.708;10.900;2023-02-28T06:30:05;7.80;;;4.97;;
21432;SDS011;18592;49.708;10.900;2023-02-28T06:32:08;6.87;;;5.17;;
21432;SDS011;18592;49.708;10.900;2023-02-28T06:34:10;8.37;;;5.10;;
21432;SDS011;18592;49.708;10.900;2023-02-28T06:36:15;6.83;;;4.87;;
21432;SDS011;18592;49.708;10.900;2023-02-28T06:38:20;8.00;;;5.30;;
21432;SDS011;18592;49.708;10.900;2023-02-28T06:40:22;9.17;;;5.30;;
21432;SDS011;18592;49.708;10.900;2023-02-28T06:42:24;7.10;;;5.30;;
21432;SDS011;18592;49.708;10.900;2023-02-28T06:44:30;7.83;;;5.43;;
21432;SDS011;18592;49.708;10.900;2023-02-28T06:46:36;7.73;;;4.87;;
21432;SDS011;18592;49.708;10.900;2023-02-28T06:48:40;6.83;;;5.00;;
21432;SDS011;18592;49.708;10.900;2023-02-28T06:50:44;7.43;;;5.13;;
21432;SDS011;18592;49.708;10.900;2023-02-28T06:52:46;8.33;;;5.37;;
21432;SDS011;18592;49.708;10.900;2023-02-28T06:54:48;8.50;;;4.97;;
21432;SDS011;18592;49.708;10.900;2023-02-28T06:57:00;7.13;;;5.43;;
21432;SDS011;18592;49.708;10.900;2023-02-28T06:59:02;8.80;;;5.37;;
21432;SDS011;18592;49.708;10.900;2023-02-28T07:01:05;12.17;;;5.67;;
21432;SDS011;18592;49.708;10.900;2023-02-28T07:03:08;8.53;;;5.50;;
21432;SDS011;18592;49.708;10.900;2023-02-28T07:05:09;11.37;;;5.90;;
21432;SDS011;18592;49.708;10.900;2023-02-28T07:07:11;7.33;;;5.40;;
21432;SDS011;18592;49.708;10.900;2023-02-28T07:09:12;9.53;;;6.37;;
21432;SDS011;18592;49.708;10.900;2023-02-28T07:11:15;9.47;;;5.83;;
21432;SDS011;18592;49.708;10.900;2023-02-28T07:13:20;8.73;;;5.40;;
21432;SDS011;18592;49.708;10.900;2023-02-28T07:15:23;8.43;;;6.17;;
21432;SDS011;18592;49.708;10.900;2023-02-28T07:17:24;8.27;;;5.60;;
21432;SDS011;18592;49.708;10.900;2023-02-28T07:19:26;10.03;;;5.30;;
21432;SDS011;18592;49.708;10.900;2023-02-28T07:21:30;8.80;;;5.50;;
21432;SDS011;18592;49.708;10.900;2023-02-28T07:23:33;8.17;;;5.13;;
21432;SDS011;18592;49.708;10.900;2023-02-28T07:25:35;7.83;;;5.30;;
21432;SDS011;18592;49.708;10.900;2023-02-28T07:27:37;7.00;;;5.00;;
21432;SDS011;18592;49.708;10.900;2023-02-28T07:29:38;8.90;;;5.40;;
21432;SDS011;18592;49.708;10.900;2023-02-28T07:31:43;10.33;;;5.17;;
21432;SDS011;18592;49.708;10.900;2023-02-28T07:33:44;6.93;;;5.17;;
21432;SDS011;18592;49.708;10.900;2023-02-28T07:35:47;9.20;;;5.23;;
21432;SDS011;18592;49.708;10.900;2023-02-28T07:37:49;6.93;;;5.20;;
21432;SDS011;18592;49.708;10.900;2023-02-28T07:39:54;8.17;;;5.37;;
21432;SDS011;18592;49.708;10.900;2023-02-28T07:41:56;7.73;;;5.27;;
21432;SDS011;18592;49.708;10.900;2023-02-28T07:44:03;8.53;;;5.63;;
21432;SDS011;18592;49.708;10.900;2023-02-28T07:46:07;8.77;;;5.77;;
21432;SDS011;18592;49.708;10.900;2023-02-28T07:48:13;7.40;;;5.20;;
21432;SDS011;18592;49.708;10.900;2023-02-28T07:50:15;8.80;;;5.63;;
21432;SDS011;18592;49.708;10.900;2023-02-28T07:52:17;8.83;;;5.30;;
21432;SDS011;18592;49.708;10.900;2023-02-28T07:54:19;8.20;;;5.27;;
21432;SDS011;18592;49.708;10.900;2023-02-28T07:56:21;9.10;;;5.10;;
21432;SDS011;18592;49.708;10.900;2023-02-28T07:58:23;8.20;;;5.33;;
21432;SDS011;18592;49.708;10.900;2023-02-28T08:00:25;12.23;;;5.57;;
21432;SDS011;18592;49.708;10.900;2023-02-28T08:02:27;7.83;;;5.63;;
21432;SDS011;18592;49.708;10.900;2023-02-28T08:04:32;7.37;;;5.10;;
21432;SDS011;18592;49.708;10.900;2023-02-28T08:06:34;9.30;;;5.63;;
21432;SDS011;18592;49.708;10.900;2023-02-28T08:08:36;9.50;;;6.30;;
21432;SDS011;18592;49.708;10.900;2023-02-28T08:10:37;8.57;;;6.17;;
21432;SDS011;18592;49.708;10.900;2023-02-28T08:12:39;9.40;;;6.20;;
21432;SDS011;18592;49.708;10.900;2023-02-28T08:14:41;9.80;;;5.80;;
21432;SDS011;18592;49.708;10.900;2023-02-28T08:16:43;7.27;;;5.47;;
21432;SDS011;18592;49.708;10.900;2023-02-28T08:18:45;7.50;;;5.40;;
21432;SDS011;18592;49.708;10.900;2023-02-28T08:20:46;7.47;;;5.50;;
21432;SDS011;18592;49.708;10.900;2023-02-28T08:22:48;8.60;;;5.70;;
21432;SDS011;18592;49.708;10.900;2023-02-28T08:24:53;11.40;;;6.37;;
21432;SDS011;18592;49.708;10.900;2023-02-28T08:26:55;7.47;;;5.07;;
21432;SDS011;18592;49.708;10.900;2023-02-28T08:34:15;8.37;;;5.50;;
21432;SDS011;18592;49.708;10.900;2023-02-28T08:36:18;8.93;;;6.10;;
21432;SDS011;18592;49.708;10.900;2023-02-28T08:38:21;8.97;;;5.20;;
21432;SDS011;18592;49.708;10.900;2023-02-28T08:40:24;6.22;;;5.05;;
21432;SDS011;18592;49.708;10.900;2023-02-28T08:42:26;6.70;;;5.10;;
21432;SDS011;18592;49.708;10.900;2023-02-28T08:44:28;6.43;;;5.00;;
21432;SDS011;18592;49.708;10.900;2023-02-28T08:46:30;9.33;;;5.57;;
21432;SDS011;18592;49.708;10.900;2023-02-28T08:48:34;7.47;;;5.40;;
21432;SDS011;18592;49.708;10.900;2023-02-28T08:50:39;7.10;;;5.33;;
21432;SDS011;18592;49.708;10.900;2023-02-28T08:52:43;7.43;;;5.90;;
21432;SDS011;18592;49.708;10.900;2023-02-28T08:54:45;8.77;;;6.00;;
21432;SDS011;18592;49.708;10.900;2023-02-28T08:56:47;7.00;;;5.70;;
21432;SDS011;18592;49.708;10.900;2023-02-28T08:58:49;7.10;;;5.30;;
21432;SDS011;18592;49.708;10.900;2023-02-28T09:00:51;7.90;;;5.00;;
21432;SDS011;18592;49.708;10.900;2023-02-28T09:02:53;6.60;;;5.13;;
21432;SDS011;18592;49.708;10.900;2023-02-28T09:04:56;8.50;;;5.60;;
21432;SDS011;18592;49.708;10.900;2023-02-28T09:06:57;6.50;;;4.97;;
21432;SDS011;18592;49.708;10.900;2023-02-28T09:08:59;6.93;;;4.93;;
21432;SDS011;18592;49.708;10.900;2023-02-28T09:11:02;8.02;;;5.32;;
21432;SDS011;18592;49.708;10.900;2023-02-28T09:13:04;7.10;;;4.90;;
21432;SDS011;18592;49.708;10.900;2023-02-28T09:15:10;7.38;;;5.57;;
21432;SDS011;18592;49.708;10.900;2023-02-28T09:17:12;7.03;;;5.00;;
21432;SDS011;18592;49.708;10.900;2023-02-28T09:19:14;7.47;;;4.97;;
21432;SDS011;18592;49.708;10.900;2023-02-28T09:21:17;6.93;;;5.00;;
21432;SDS011;18592;49.708;10.900;2023-02-28T09:23:20;6.15;;;5.05;;
21432;SDS011;18592;49.708;10.900;2023-02-28T09:25:22;7.55;;;5.40;;
21432;SDS011;18592;49.708;10.900;2023-02-28T09:27:24;7.05;;;4.88;;
21432;SDS011;18592;49.708;10.900;2023-02-28T09:29:26;7.38;;;4.57;;
21432;SDS011;18592;49.708;10.900;2023-02-28T09:31:29;6.05;;;5.25;;
21432;SDS011;18592;49.708;10.900;2023-02-28T09:33:31;8.07;;;4.88;;
21432;SDS011;18592;49.708;10.900;2023-02-28T09:35:33;6.35;;;4.65;;
21432;SDS011;18592;49.708;10.900;2023-02-28T09:37:35;8.23;;;4.88;;
21432;SDS011;18592;49.708;10.900;2023-02-28T09:39:37;7.40;;;5.15;;
21432;SDS011;18592;49.708;10.900;2023-02-28T09:41:40;7.13;;;4.78;;
21432;SDS011;18592;49.708;10.900;2023-02-28T09:43:53;6.70;;;5.00;;
21432;SDS011;18592;49.708;10.900;2023-02-28T09:48:18;6.35;;;4.70;;
21432;SDS011;18592;49.708;10.900;2023-02-28T09:52:29;8.65;;;5.10;;
21432;SDS011;18592;49.708;10.900;2023-02-28T09:54:33;6.15;;;4.93;;
21432;SDS011;18592;49.708;10.900;2023-02-28T09:56:39;7.22;;;5.18;;
21432;SDS011;18592;49.708;10.900;2023-02-28T09:58:50;8.10;;;5.45;;
21432;SDS011;18592;49.708;10.900;2023-02-28T10:03:38;6.00;;;4.90;;
21432;SDS011;18592;49.708;10.900;2023-02-28T10:10:13;6.88;;;5.03;;
21432;SDS011;18592;49.708;10.900;2023-02-28T10:12:22;5.55;;;4.07;;
21432;SDS011;18592;49.708;10.900;2023-02-28T10:14:28;5.80;;;4.32;;
21432;SDS011;18592;49.708;10.900;2023-02-28T10:18:46;5.07;;;4.18;;
21432;SDS011;18592;49.708;10.900;2023-02-28T10:20:52;5.63;;;4.30;;
21432;SDS011;18592;49.708;10.900;2023-02-28T10:25:19;4.88;;;4.10;;
21432;SDS011;18592;49.708;10.900;2023-02-28T10:27:23;5.82;;;4.32;;
21432;SDS011;18592;49.708;10.900;2023-02-28T10:29:29;5.70;;;4.03;;
21432;SDS011;18592;49.708;10.900;2023-02-28T10:31:34;7.43;;;4.18;;
21432;SDS011;18592;49.708;10.900;2023-02-28T10:33:35;5.88;;;4.30;;
21432;SDS011;18592;49.708;10.900;2023-02-28T10:35:37;5.88;;;4.25;;
21432;SDS011;18592;49.708;10.900;2023-02-28T10:37:40;7.00;;;4.75;;
21432;SDS011;18592;49.708;10.900;2023-02-28T10:39:46;6.80;;;4.50;;
21432;SDS011;18592;49.708;10.900;2023-02-28T10:41:48;5.70;;;4.63;;
21432;SDS011;18592;49.708;10.900;2023-02-28T10:43:49;8.18;;;4.63;;
21432;SDS011;18592;49.708;10.900;2023-02-28T10:50:42;6.68;;;5.00;;
21432;SDS011;18592;49.708;10.900;2023-02-28T10:53:07;7.07;;;5.30;;
21432;SDS011;18592;49.708;10.900;2023-02-28T10:55:25;6.85;;;5.20;;
21432;SDS011;18592;49.708;10.900;2023-02-28T10:57:27;7.35;;;4.78;;
21432;SDS011;18592;49.708;10.900;2023-02-28T10:59:32;5.85;;;4.82;;
21432;SDS011;18592;49.708;10.900;2023-02-28T11:03:43;6.43;;;4.78;;
21432;SDS011;18592;49.708;10.900;2023-02-28T11:05:44;6.70;;;4.43;;
21432;SDS011;18592;49.708;10.900;2023-02-28T11:07:51;5.78;;;4.55;;
21432;SDS011;18592;49.708;10.900;2023-02-28T11:09:57;6.95;;;4.63;;
21432;SDS011;18592;49.708;10.900;2023-02-28T11:12:00;7.82;;;5.28;;
21432;SDS011;18592;49.708;10.900;2023-02-28T11:14:25;6.50;;;5.13;;
21432;SDS011;18592;49.708;10.900;2023-02-28T11:16:33;6.35;;;4.63;;
21432;SDS011;18592;49.708;10.900;2023-02-28T11:18:42;6.72;;;4.93;;
21432;SDS011;18592;49.708;10.900;2023-02-28T11:20:49;6.60;;;4.15;;
21432;SDS011;18592;49.708;10.900;2023-02-28T11:22:53;6.07;;;4.78;;
21432;SDS011;18592;49.708;10.900;2023-02-28T11:24:58;6.35;;;4.95;;
21432;SDS011;18592;49.708;10.900;2023-02-28T11:27:03;6.43;;;5.03;;
21432;SDS011;18592;49.708;10.900;2023-02-28T11:29:12;5.50;;;4.57;;
21432;SDS011;18592;49.708;10.900;2023-02-28T11:31:20;5.45;;;4.30;;
21432;SDS011;18592;49.708;10.900;2023-02-28T11:33:27;4.80;;;4.00;;
21432;SDS011;18592;49.708;10.900;2023-02-28T11:35:53;4.65;;;4.00;;
21432;SDS011;18592;49.708;10.900;2023-02-28T11:38:04;5.45;;;4.20;;
21432;SDS011;18592;49.708;10.900;2023-02-28T11:40:16;5.93;;;4.38;;
21432;SDS011;18592;49.708;10.900;2023-02-28T11:42:31;5.25;;;4.18;;
21432;SDS011;18592;49.708;10.900;2023-02-28T11:45:07;5.55;;;4.40;;
21432;SDS011;18592;49.708;10.900;2023-02-28T11:57:01;6.82;;;4.40;;
21432;SDS011;18592;49.708;10.900;2023-02-28T12:11:51;7.05;;;4.95;;
21432;SDS011;18592;49.708;10.900;2023-02-28T12:16:27;7.05;;;4.80;;
21432;SDS011;18592;49.708;10.900;2023-02-28T12:25:57;5.53;;;4.40;;
21432;SDS011;18592;49.708;10.900;2023-02-28T12:28:23;5.85;;;4.43;;
21432;SDS011;18592;49.708;10.900;2023-02-28T12:30:31;6.15;;;4.60;;
21432;SDS011;18592;49.708;10.900;2023-02-28T12:32:39;5.43;;;4.50;;
21432;SDS011;18592;49.708;10.900;2023-02-28T12:34:47;5.60;;;4.55;;
21432;SDS011;18592;49.708;10.900;2023-02-28T12:36:53;5.50;;;4.43;;
21432;SDS011;18592;49.708;10.900;2023-02-28T12:39:43;6.35;;;4.85;;
21432;SDS011;18592;49.708;10.900;2023-02-28T12:41:37;5.50;;;4.43;;
21432;SDS011;18592;49.708;10.900;2023-02-28T12:43:48;4.80;;;3.88;;
21432;SDS011;18592;49.708;10.900;2023-02-28T12:46:10;5.05;;;3.35;;
21432;SDS011;18592;49.708;10.900;2023-02-28T12:48:31;6.10;;;4.57;;
21432;SDS011;18592;49.708;10.900;2023-02-28T12:50:38;4.85;;;3.95;;
21432;SDS011;18592;49.708;10.900;2023-02-28T12:52:56;5.88;;;4.00;;
21432;SDS011;18592;49.708;10.900;2023-02-28T12:55:07;5.72;;;4.32;;
21432;SDS011;18592;49.708;10.900;2023-02-28T12:57:22;5.78;;;4.35;;
21432;SDS011;18592;49.708;10.900;2023-02-28T12:59:38;4.93;;;4.38;;
21432;SDS011;18592;49.708;10.900;2023-02-28T13:01:51;5.25;;;4.38;;
21432;SDS011;18592;49.708;10.900;2023-02-28T13:09:14;6.97;;;4.45;;
21432;SDS011;18592;49.708;10.900;2023-02-28T13:13:39;6.82;;;4.65;;
21432;SDS011;18592;49.708;10.900;2023-02-28T13:18:01;4.90;;;4.15;;
21432;SDS011;18592;49.708;10.900;2023-02-28T13:20:03;4.90;;;4.40;;
21432;SDS011;18592;49.708;10.900;2023-02-28T13:22:05;7.03;;;5.10;;
21432;SDS011;18592;49.708;10.900;2023-02-28T13:24:55;7.57;;;4.57;;
21432;SDS011;18592;49.708;10.900;2023-02-28T13:29:04;5.55;;;4.50;;
21432;SDS011;18592;49.708;10.900;2023-02-28T13:31:28;5.30;;;4.10;;
21432;SDS011;18592;49.708;10.900;2023-02-28T13:35:38;6.43;;;4.32;;
21432;SDS011;18592;49.708;10.900;2023-02-28T13:37:47;5.93;;;4.60;;
21432;SDS011;18592;49.708;10.900;2023-02-28T13:41:56;5.85;;;4.72;;
21432;SDS011;18592;49.708;10.900;2023-02-28T13:46:10;6.97;;;5.10;;
21432;SDS011;18592;49.708;10.900;2023-02-28T13:48:17;5.78;;;4.25;;
21432;SDS011;18592;49.708;10.900;2023-02-28T13:52:31;4.90;;;3.75;;
21432;SDS011;18592;49.708;10.900;2023-02-28T13:54:39;4.20;;;3.80;;
21432;SDS011;18592;49.708;10.900;2023-02-28T13:57:12;6.47;;;4.60;;
21432;SDS011;18592;49.708;10.900;2023-02-28T14:06:47;6.55;;;4.63;;
21432;SDS011;18592;49.708;10.900;2023-02-28T14:08:32;6.15;;;4.70;;
21432;SDS011;18592;49.708;10.900;2023-02-28T14:10:37;7.28;;;4.90;;
21432;SDS011;18592;49.708;10.900;2023-02-28T14:14:57;6.53;;;4.82;;
21432;SDS011;18592;49.708;10.900;2023-02-28T14:16:59;7.95;;;5.22;;
21432;SDS011;18592;49.708;10.900;2023-02-28T14:19:10;6.53;;;4.90;;
21432;SDS011;18592;49.708;10.900;2023-02-28T14:23:36;7.97;;;4.95;;
21432;SDS011;18592;49.708;10.900;2023-02-28T14:26:01;6.22;;;4.88;;
21432;SDS011;18592;49.708;10.900;2023-02-28T14:28:13;6.18;;;4.63;;